createdAt,value
2018-08-08T00:00:23.652Z,261.92
2018-08-08T00:02:54.942Z,274.25
2018-08-08T00:05:26.598Z,279.40
2018-08-08T00:08:02.316Z,271.57
2018-08-08T00:10:34.096Z,279.80
2018-08-08T00:13:06.197Z,261.87
2018-08-08T00:15:38.536Z,280.27
2018-08-08T00:18:10.868Z,268.25
2018-08-08T00:20:42.084Z,263.62
2018-08-08T00:23:13.188Z,267.00
2018-08-08T00:25:44.531Z,263.55
2018-08-08T00:28:15.635Z,257.10
2018-08-08T00:30:46.598Z,251.02
2018-08-08T00:33:17.809Z,258.98
2018-08-08T00:35:48.976Z,244.85
2018-08-08T00:38:20.025Z,256.82
2018-08-08T00:40:51.191Z,248.60
2018-08-08T00:43:22.640Z,252.10
2018-08-08T00:45:53.788Z,249.90
2018-08-08T00:48:24.847Z,243.02
2018-08-08T00:50:56.074Z,251.45
2018-08-08T00:53:27.221Z,241.17
2018-08-08T00:55:58.266Z,248.85
2018-08-08T00:58:29.334Z,250.03
2018-08-08T01:01:00.256Z,248.57
2018-08-08T01:03:31.415Z,239.95
2018-08-08T01:06:02.963Z,241.05
2018-08-08T01:08:34.164Z,237.42
2018-08-08T01:11:05.618Z,242.05
2018-08-08T01:13:36.928Z,249.27
2018-08-08T01:16:08.109Z,247.93
2018-08-08T01:18:39.148Z,250.53
2018-08-08T01:21:10.175Z,247.12
2018-08-08T01:23:41.167Z,241.55
2018-08-08T01:26:12.410Z,238.30
2018-08-08T01:28:43.496Z,241.00
2018-08-08T01:31:14.612Z,246.28
2018-08-08T01:33:45.935Z,251.25
2018-08-08T01:36:16.821Z,247.40
2018-08-08T01:38:48.072Z,248.10
2018-08-08T01:41:19.808Z,255.85
2018-08-08T01:43:51.137Z,271.85
2018-08-08T01:46:22.245Z,273.62
2018-08-08T01:48:53.388Z,250.90
2018-08-08T01:51:26.979Z,251.18
2018-08-08T01:53:58.185Z,265.52
2018-08-08T01:56:29.645Z,263.92
2018-08-08T01:59:01.548Z,266.05
2018-08-08T02:01:32.948Z,244.07
2018-08-08T02:04:04.098Z,263.98
2018-08-08T02:06:35.384Z,232.18
2018-08-08T02:09:08.220Z,257.23
2018-08-08T02:12:19.203Z,261.27
2018-08-08T02:14:49.586Z,260.25
2018-08-08T02:17:20.081Z,250.40
2018-08-08T02:19:50.483Z,248.87
2018-08-08T02:22:22.009Z,233.10
2018-08-08T02:24:52.184Z,241.12
2018-08-08T02:27:22.768Z,241.02
2018-08-08T02:29:53.681Z,242.50
2018-08-08T02:32:24.068Z,231.07
2018-08-08T02:34:55.532Z,247.52
2018-08-08T02:37:28.105Z,238.40
2018-08-08T02:39:58.804Z,235.53
2018-08-08T02:42:30.776Z,237.88
2018-08-08T02:45:01.633Z,238.15
2018-08-08T02:47:32.020Z,237.35
2018-08-08T02:50:03.296Z,245.48
2018-08-08T02:52:33.697Z,231.50
2018-08-08T02:55:05.273Z,237.90
2018-08-08T02:57:36.524Z,240.72
2018-08-08T03:00:07.940Z,237.68
2018-08-08T03:02:38.267Z,244.75
2018-08-08T03:05:13.697Z,239.63
2018-08-08T03:07:44.817Z,239.08
2018-08-08T03:10:16.717Z,227.03
2018-08-08T03:12:47.185Z,232.90
2018-08-08T03:15:18.892Z,246.53
2018-08-08T03:17:49.262Z,242.32
2018-08-08T03:20:20.904Z,241.15
2018-08-08T03:22:51.174Z,241.35
2018-08-08T03:25:23.252Z,244.20
2018-08-08T03:27:53.580Z,250.70
2018-08-08T03:30:24.304Z,241.97
2018-08-08T03:32:54.663Z,237.12
2018-08-08T03:35:26.417Z,240.32
2018-08-08T03:37:56.765Z,233.85
2018-08-08T03:40:27.079Z,262.98
2018-08-08T03:42:57.277Z,232.95
2018-08-08T03:45:29.893Z,236.95
2018-08-08T03:48:02.242Z,246.57
2018-08-08T03:50:32.723Z,247.10
2018-08-08T03:53:03.676Z,243.00
2018-08-08T03:55:34.028Z,262.42
2018-08-08T03:58:05.992Z,242.43
2018-08-08T04:00:36.428Z,246.35
2018-08-08T04:05:58.979Z,237.23
2018-08-08T04:08:30.018Z,231.80
2018-08-08T04:11:00.219Z,226.45
2018-08-08T04:13:31.016Z,236.07
2018-08-08T04:16:01.419Z,236.25
2018-08-08T04:18:31.948Z,238.22
2018-08-08T04:21:02.705Z,231.45
2018-08-08T04:23:33.535Z,231.93
2018-08-08T04:26:03.924Z,232.20
2018-08-08T04:28:34.355Z,233.43
2018-08-08T04:31:04.673Z,233.85
2018-08-08T04:33:35.111Z,224.73
2018-08-08T04:36:05.638Z,225.40
2018-08-08T04:38:35.892Z,236.30
2018-08-08T04:41:06.271Z,224.90
2018-08-08T04:43:36.564Z,231.63
2018-08-08T04:46:06.887Z,236.47
2018-08-08T04:48:37.165Z,228.95
2018-08-08T04:51:07.407Z,236.52
2018-08-08T04:53:37.642Z,235.75
2018-08-08T04:56:08.536Z,231.02
2018-08-08T04:58:39.031Z,226.40
2018-08-08T05:01:09.170Z,224.15
2018-08-08T05:03:39.286Z,232.62
2018-08-08T05:06:09.483Z,232.35
2018-08-08T05:08:40.188Z,232.27
2018-08-08T05:11:10.265Z,231.05
2018-08-08T05:13:40.420Z,229.70
2018-08-08T05:16:10.636Z,249.25
2018-08-08T05:18:40.714Z,250.82
2018-08-08T05:21:10.839Z,239.25
2018-08-08T05:23:40.993Z,238.82
2018-08-08T05:26:11.278Z,237.75
2018-08-08T05:28:41.992Z,231.00
2018-08-08T05:31:12.700Z,243.95
2018-08-08T05:33:47.627Z,252.40
2018-08-08T05:36:19.210Z,237.23
2018-08-08T05:38:50.729Z,241.08
2018-08-08T05:41:23.790Z,242.82
2018-08-08T05:43:54.235Z,252.57
2018-08-08T05:46:24.799Z,244.65
2018-08-08T05:48:56.116Z,239.00
2018-08-08T05:51:26.275Z,241.38
2018-08-08T05:53:59.786Z,244.32
2018-08-08T05:56:33.825Z,244.07
2018-08-08T05:59:04.792Z,249.90
2018-08-08T06:01:34.899Z,256.45
2018-08-08T06:04:11.619Z,249.37
2018-08-08T06:06:41.795Z,248.13
2018-08-08T06:09:12.021Z,256.65
2018-08-08T06:11:42.210Z,265.43
2018-08-08T06:14:12.304Z,256.45
2018-08-08T06:16:42.395Z,263.07
2018-08-08T06:19:12.529Z,266.55
2018-08-08T06:21:42.856Z,260.52
2018-08-08T06:24:13.105Z,261.10
2018-08-08T06:26:43.226Z,267.85
2018-08-08T06:29:13.344Z,250.75
2018-08-08T06:31:43.435Z,255.62
2018-08-08T06:34:14.400Z,258.25
2018-08-08T06:36:44.736Z,258.65
2018-08-08T06:39:15.293Z,251.82
2018-08-08T06:41:45.343Z,256.93
2018-08-08T06:44:15.894Z,247.70
2018-08-08T06:46:46.103Z,255.95
2018-08-08T06:49:16.384Z,262.85
2018-08-08T06:51:46.545Z,253.07
2018-08-08T06:54:16.703Z,266.98
2018-08-08T06:56:46.861Z,259.52
2018-08-08T06:59:17.268Z,259.15
2018-08-08T07:01:47.352Z,256.07
2018-08-08T07:04:17.752Z,261.55
2018-08-08T07:06:47.829Z,236.00
2018-08-08T07:09:18.042Z,262.75
2018-08-08T07:11:48.029Z,261.23
2018-08-08T07:14:18.369Z,249.42
2018-08-08T07:16:48.882Z,274.40
2018-08-08T07:19:19.083Z,238.30
2018-08-08T07:21:49.492Z,256.85
2018-08-08T07:24:20.980Z,228.42
2018-08-08T07:26:51.843Z,239.33
2018-08-08T07:29:22.077Z,291.65
2018-08-08T07:31:52.231Z,267.95
2018-08-08T07:34:22.609Z,280.87
2018-08-08T07:36:52.921Z,278.70
2018-08-08T07:39:27.612Z,264.55
2018-08-08T07:41:58.781Z,262.38
2018-08-08T07:45:31.918Z,254.03
2018-08-08T07:48:03.537Z,246.15
2018-08-08T07:50:33.550Z,235.28
2018-08-08T07:53:04.419Z,275.30
2018-08-08T07:55:34.540Z,255.35
2018-08-08T07:58:06.332Z,257.67
2018-08-08T08:00:36.464Z,251.47
2018-08-08T08:03:09.597Z,259.52
2018-08-08T08:05:39.696Z,262.30
2018-08-08T08:08:11.320Z,251.70
2018-08-08T08:10:42.476Z,249.82
2018-08-08T08:13:12.822Z,248.03
2018-08-08T08:15:42.873Z,253.85
2018-08-08T08:18:12.969Z,260.27
2018-08-08T08:20:43.621Z,270.57
2018-08-08T08:23:14.190Z,285.30
2018-08-08T08:25:44.789Z,267.50
2018-08-08T08:28:14.984Z,261.35
2018-08-08T08:30:45.154Z,264.08
2018-08-08T08:33:15.219Z,280.98
2018-08-08T08:35:46.206Z,249.80
2018-08-08T08:38:16.280Z,238.45
2018-08-08T08:40:46.584Z,302.43
2018-08-08T08:43:16.710Z,281.08
2018-08-08T08:45:47.311Z,285.82
2018-08-08T08:48:17.542Z,275.32
2018-08-08T08:50:47.828Z,305.85
2018-08-08T08:53:18.921Z,300.18
2018-08-08T08:55:49.408Z,302.27
2018-08-08T08:58:19.540Z,290.50
2018-08-08T09:00:49.960Z,294.80
2018-08-08T09:03:20.212Z,281.00
2018-08-08T09:05:53.472Z,337.63
2018-08-08T09:08:26.401Z,311.43
2018-08-08T09:10:59.174Z,320.35
2018-08-08T09:13:31.799Z,298.10
2018-08-08T09:16:03.259Z,306.43
2018-08-08T09:18:33.575Z,323.93
2018-08-08T09:21:03.880Z,303.42
2018-08-08T09:23:34.100Z,295.12
2018-08-08T09:26:05.402Z,321.35
2018-08-08T09:28:36.005Z,307.90
2018-08-08T09:31:06.422Z,301.88
2018-08-08T09:33:38.010Z,295.80
2018-08-08T09:36:09.076Z,297.17
2018-08-08T09:38:39.307Z,267.70
2018-08-08T09:41:10.335Z,304.80
2018-08-08T09:43:40.817Z,309.25
2018-08-08T09:46:11.770Z,285.25
2018-08-08T09:48:42.031Z,295.57
2018-08-08T09:51:12.609Z,292.23
2018-08-08T09:53:42.989Z,308.17
2018-08-08T09:56:13.414Z,311.27
2018-08-08T09:58:43.840Z,289.08
2018-08-08T10:01:19.803Z,295.80
2018-08-08T10:03:56.172Z,307.57
2018-08-08T10:06:28.228Z,293.67
2018-08-08T10:08:59.559Z,310.60
2018-08-08T10:11:31.450Z,311.62
2018-08-08T10:14:02.735Z,317.18
2018-08-08T10:16:34.564Z,306.95
2018-08-08T10:19:06.353Z,321.62
2018-08-08T10:21:37.856Z,317.65
2018-08-08T10:24:09.614Z,328.58
2018-08-08T10:26:41.624Z,323.65
2018-08-08T10:29:13.580Z,327.07
2018-08-08T10:31:44.744Z,313.02
2018-08-08T10:34:17.400Z,329.75
2018-08-08T10:36:49.444Z,303.83
2018-08-08T10:39:21.783Z,306.90
2018-08-08T10:41:53.219Z,340.02
2018-08-08T10:44:25.144Z,292.65
2018-08-08T10:46:57.692Z,303.02
2018-08-08T10:49:28.836Z,302.77
2018-08-08T10:52:01.913Z,327.52
2018-08-08T10:54:34.450Z,334.92
2018-08-08T10:57:10.383Z,317.05
2018-08-08T10:59:58.767Z,294.62
2018-08-08T11:02:31.742Z,290.75
2018-08-08T11:05:02.540Z,306.27
2018-08-08T11:07:32.938Z,323.73
2018-08-08T11:10:03.677Z,317.85
2018-08-08T11:12:33.925Z,303.42
2018-08-08T11:15:05.163Z,311.75
2018-08-08T11:17:35.880Z,289.27
2018-08-08T11:20:07.127Z,318.30
2018-08-08T11:22:46.776Z,320.70
2018-08-08T11:25:18.816Z,323.95
2018-08-08T11:27:49.194Z,336.92
2018-08-08T11:30:24.173Z,349.50
2018-08-08T11:33:01.109Z,341.57
2018-08-08T11:35:32.538Z,359.57
2018-08-08T11:38:04.377Z,331.45
2018-08-08T11:40:34.704Z,327.52
2018-08-08T11:43:12.554Z,337.68
2018-08-08T11:48:45.927Z,286.50
2018-08-08T11:51:21.048Z,312.45
2018-08-08T11:53:52.139Z,298.20
2018-08-08T11:56:22.321Z,297.07
2018-08-08T11:58:52.545Z,336.12
2018-08-08T12:01:22.835Z,315.32
2018-08-08T12:03:53.092Z,328.12
2018-08-08T12:06:23.603Z,313.27
2018-08-08T12:08:53.738Z,298.30
2018-08-08T12:11:23.889Z,314.20
2018-08-08T12:13:54.098Z,351.27
2018-08-08T12:16:24.177Z,311.62
2018-08-08T12:18:54.941Z,308.98
2018-08-08T12:21:25.075Z,327.87
2018-08-08T12:23:55.823Z,322.33
2018-08-08T12:26:26.065Z,328.98
2018-08-08T12:28:56.305Z,318.35
2018-08-08T12:31:26.618Z,309.65
2018-08-08T12:33:56.818Z,333.20
2018-08-08T12:36:27.167Z,313.37
2018-08-08T12:38:57.705Z,318.02
2018-08-08T12:41:28.008Z,310.65
2018-08-08T12:43:58.244Z,307.07
2018-08-08T12:46:28.288Z,329.18
2018-08-08T12:48:58.582Z,373.75
2018-08-08T12:51:28.868Z,299.83
2018-08-08T12:53:59.244Z,294.25
2018-08-08T12:56:29.393Z,314.82
2018-08-08T12:58:59.614Z,334.67
2018-08-08T13:01:29.810Z,302.60
2018-08-08T13:04:00.311Z,267.50
2018-08-08T13:06:30.947Z,288.57
2018-08-08T13:09:01.608Z,297.30
2018-08-08T13:11:31.918Z,314.55
2018-08-08T13:14:02.613Z,291.30
2018-08-08T13:16:33.043Z,308.77
2018-08-08T13:19:03.351Z,286.35
2018-08-08T13:21:33.865Z,294.80
2018-08-08T13:24:04.027Z,302.77
2018-08-08T13:26:34.621Z,289.10
2018-08-08T13:29:04.884Z,299.65
2018-08-08T13:31:35.172Z,292.37
2018-08-08T13:34:05.629Z,284.73
2018-08-08T13:36:36.055Z,286.55
2018-08-08T13:39:09.953Z,280.57
2018-08-08T13:41:40.112Z,308.00
2018-08-08T13:44:10.333Z,289.30
2018-08-08T13:46:41.384Z,297.85
2018-08-08T13:49:11.717Z,302.27
2018-08-08T13:51:42.133Z,290.98
2018-08-08T13:54:13.039Z,279.98
2018-08-08T13:56:43.574Z,287.02
2018-08-08T13:59:14.598Z,322.75
2018-08-08T14:01:44.867Z,292.50
2018-08-08T14:04:15.131Z,304.43
2018-08-08T14:06:45.596Z,320.48
2018-08-08T14:09:15.723Z,278.65
2018-08-08T14:11:46.052Z,282.90
2018-08-08T14:14:16.621Z,300.62
2018-08-08T14:16:46.776Z,322.05
2018-08-08T14:19:17.225Z,299.55
2018-08-08T14:21:47.493Z,306.20
2018-08-08T14:24:17.856Z,310.60
2018-08-08T14:26:48.513Z,305.50
2018-08-08T14:29:18.804Z,320.23
2018-08-08T14:31:49.148Z,315.68
2018-08-08T14:34:32.899Z,292.87
2018-08-08T14:37:04.412Z,287.23
2018-08-08T14:39:34.708Z,292.00
2018-08-08T14:42:06.093Z,327.98
2018-08-08T14:44:36.644Z,311.35
2018-08-08T14:47:06.844Z,325.05
2018-08-08T14:49:37.183Z,337.88
2018-08-08T14:52:07.604Z,344.20
2018-08-08T14:54:37.783Z,306.82
2018-08-08T14:57:07.855Z,341.20
2018-08-08T14:59:38.347Z,336.75
2018-08-08T15:02:08.326Z,315.92
2018-08-08T15:04:38.891Z,304.82
2018-08-08T15:07:09.446Z,325.30
2018-08-08T15:09:40.063Z,342.32
2018-08-08T15:12:10.335Z,312.38
2018-08-08T15:14:40.600Z,329.60
2018-08-08T15:17:10.911Z,343.25
2018-08-08T15:19:41.380Z,320.00
2018-08-08T15:22:11.718Z,329.60
2018-08-08T15:24:42.288Z,326.58
2018-08-08T15:27:13.252Z,304.27
2018-08-08T15:29:43.579Z,301.18
2018-08-08T15:32:13.846Z,314.12
2018-08-08T15:34:44.231Z,301.52
2018-08-08T15:37:15.040Z,335.82
2018-08-08T15:39:44.986Z,310.93
2018-08-08T15:42:15.245Z,324.40
2018-08-08T15:44:45.343Z,334.80
2018-08-08T15:47:15.786Z,319.90
2018-08-08T15:49:46.120Z,320.80
2018-08-08T15:52:16.506Z,298.25
2018-08-08T15:54:46.802Z,327.85
2018-08-08T15:57:17.384Z,307.75
2018-08-08T15:59:47.472Z,344.23
2018-08-08T16:02:18.092Z,309.50
2018-08-08T16:04:48.326Z,320.90
2018-08-08T16:07:19.338Z,304.15
2018-08-08T16:09:49.450Z,322.73
2018-08-08T16:12:20.194Z,309.60
2018-08-08T16:14:50.837Z,331.75
2018-08-08T16:17:21.124Z,336.18
2018-08-08T16:19:51.435Z,317.77
2018-08-08T16:22:21.906Z,316.90
2018-08-08T16:24:52.212Z,313.65
2018-08-08T16:27:22.727Z,321.15
2018-08-08T16:29:52.984Z,318.27
2018-08-08T16:32:23.354Z,326.37
2018-08-08T16:34:53.561Z,316.75
2018-08-08T16:37:23.741Z,326.48
2018-08-08T16:39:54.009Z,314.88
2018-08-08T16:42:24.909Z,341.82
2018-08-08T16:44:55.074Z,341.00
2018-08-08T16:47:25.511Z,312.65
2018-08-08T16:49:56.000Z,328.65
2018-08-08T16:52:26.301Z,329.38
2018-08-08T16:54:56.464Z,328.62
2018-08-08T16:57:26.947Z,298.52
2018-08-08T16:59:57.322Z,318.12
2018-08-08T17:02:27.937Z,322.27
2018-08-08T17:04:58.193Z,302.62
2018-08-08T17:07:28.344Z,314.88
2018-08-08T17:09:58.720Z,320.02
2018-08-08T17:12:29.709Z,335.50
2018-08-08T17:15:00.063Z,311.25
2018-08-08T17:17:30.424Z,291.47
2018-08-08T17:20:01.220Z,282.68
2018-08-08T17:22:31.660Z,319.87
2018-08-08T17:25:02.281Z,333.73
2018-08-08T17:27:32.516Z,313.50
2018-08-08T17:30:03.397Z,312.68
2018-08-08T17:32:33.620Z,310.08
2018-08-08T17:35:07.440Z,294.00
2018-08-08T17:37:38.361Z,319.02
2018-08-08T17:40:08.649Z,310.98
2018-08-08T17:42:38.703Z,287.30
2018-08-08T17:45:12.303Z,306.45
2018-08-08T17:47:43.157Z,301.88
2018-08-08T17:50:13.396Z,303.92
2018-08-08T17:52:43.711Z,276.12
2018-08-08T17:55:14.586Z,276.45
2018-08-08T17:57:44.834Z,289.82
2018-08-08T18:00:14.989Z,299.95
2018-08-08T18:02:45.087Z,306.10
2018-08-08T18:05:15.441Z,291.00
2018-08-08T18:07:45.570Z,271.65
2018-08-08T18:10:15.672Z,287.80
2018-08-08T18:12:45.729Z,287.08
2018-08-08T18:15:16.514Z,264.17
2018-08-08T18:17:46.488Z,319.70
2018-08-08T18:20:16.834Z,344.20
2018-08-08T18:22:47.051Z,305.67
2018-08-08T18:25:22.941Z,290.10
2018-08-08T18:27:52.979Z,296.48
2018-08-08T18:30:25.480Z,312.45
2018-08-08T18:32:55.612Z,295.07
2018-08-08T18:35:26.170Z,308.65
2018-08-08T18:37:56.759Z,313.12
2018-08-08T18:40:26.868Z,284.00
2018-08-08T18:42:57.060Z,284.85
2018-08-08T18:45:27.184Z,280.73
2018-08-08T18:47:57.226Z,283.07
2018-08-08T18:50:27.494Z,281.70
2018-08-08T18:52:57.770Z,287.95
2018-08-08T18:55:28.979Z,284.00
2018-08-08T18:58:00.124Z,283.55
2018-08-08T19:00:34.709Z,285.55
2018-08-08T19:03:12.520Z,317.27
2018-08-08T19:05:45.858Z,277.45
2018-08-08T19:08:16.310Z,283.50
2018-08-08T19:10:51.096Z,302.60
2018-08-08T19:13:31.457Z,278.15
2018-08-08T19:16:08.235Z,268.15
2018-08-08T19:18:42.332Z,284.90
2018-08-08T19:21:13.250Z,291.20
2018-08-08T19:23:47.554Z,274.50
2018-08-08T19:26:25.959Z,277.90
2018-08-08T19:28:57.058Z,284.48
2018-08-08T19:31:27.973Z,273.05
2018-08-08T19:34:01.628Z,275.43
2018-08-08T19:36:34.122Z,274.23
2018-08-08T19:39:08.767Z,259.75
2018-08-08T19:41:39.941Z,260.77
2018-08-08T19:44:13.037Z,274.92
2018-08-08T19:46:47.111Z,285.02
2018-08-08T19:49:19.347Z,286.95
2018-08-08T19:51:52.331Z,266.02
2018-08-08T19:54:27.576Z,242.60
2018-08-08T19:57:03.811Z,283.02
2018-08-08T19:59:35.828Z,264.48
2018-08-08T20:02:07.222Z,276.90
2018-08-08T20:04:39.168Z,245.07
2018-08-08T20:07:11.269Z,264.05
2018-08-08T20:09:42.400Z,269.62
2018-08-08T20:12:13.124Z,257.40
2018-08-08T20:14:43.807Z,254.40
2018-08-08T20:17:14.612Z,255.95
2018-08-08T20:19:45.979Z,243.40
2018-08-08T20:22:18.268Z,242.25
2018-08-08T20:24:49.085Z,254.82
2018-08-08T20:27:19.866Z,249.07
2018-08-08T20:29:50.441Z,255.55
2018-08-08T20:32:20.868Z,257.12
2018-08-08T20:34:51.023Z,267.13
2018-08-08T20:37:21.434Z,258.68
2018-08-08T20:39:51.700Z,258.23
2018-08-08T20:42:22.553Z,251.30
2018-08-08T20:44:53.982Z,254.35
2018-08-08T20:47:24.925Z,251.70
2018-08-08T20:49:55.410Z,251.95
2018-08-08T20:52:26.905Z,260.90
2018-08-08T20:54:57.387Z,274.90
2018-08-08T20:57:27.685Z,248.60
2018-08-08T20:59:57.927Z,234.35
2018-08-08T21:02:28.138Z,243.37
2018-08-08T21:04:59.739Z,255.65
2018-08-08T21:07:30.076Z,244.77
2018-08-08T21:10:20.462Z,244.40
2018-08-08T21:12:53.854Z,267.98
2018-08-08T21:15:24.075Z,260.80
2018-08-08T21:17:56.108Z,248.35
2018-08-08T21:20:26.469Z,251.32
2018-08-08T21:22:56.647Z,259.70
2018-08-08T21:25:26.927Z,251.22
2018-08-08T21:27:57.275Z,239.72
2018-08-08T21:30:27.929Z,254.90
2018-08-08T21:32:58.133Z,252.72
2018-08-08T21:35:28.303Z,237.97
2018-08-08T21:37:59.055Z,242.00
2018-08-08T21:40:29.472Z,242.95
2018-08-08T21:42:59.755Z,243.20
2018-08-08T21:45:30.239Z,246.00
2018-08-08T21:48:00.493Z,240.35
2018-08-08T21:50:31.616Z,250.13
2018-08-08T21:53:02.835Z,241.12
2018-08-08T21:55:43.848Z,243.37
2018-08-08T21:58:26.020Z,238.47
2018-08-08T22:01:10.777Z,227.68
2018-08-08T22:03:51.921Z,254.30
2018-08-08T22:06:32.791Z,233.75
2018-08-08T22:09:13.791Z,236.25
2018-08-08T22:11:55.084Z,235.40
2018-08-08T22:14:36.314Z,229.72
2018-08-08T22:17:17.239Z,234.70
2018-08-08T22:19:48.028Z,228.58
2018-08-08T22:22:18.316Z,224.05
2018-08-08T22:24:48.540Z,239.38
2018-08-08T22:27:18.734Z,229.90
2018-08-08T22:29:48.880Z,224.82
2018-08-08T22:32:19.101Z,245.00
2018-08-08T22:34:49.339Z,239.55
2018-08-08T22:37:19.511Z,237.30
2018-08-08T22:39:49.798Z,253.35
2018-08-08T22:42:20.216Z,244.43
2018-08-08T22:44:50.818Z,243.95
2018-08-08T22:47:21.043Z,248.30
2018-08-08T22:49:51.431Z,237.10
2018-08-08T22:52:22.521Z,246.03
2018-08-08T22:54:52.749Z,245.17
2018-08-08T22:57:22.996Z,242.53
2018-08-08T22:59:53.467Z,234.85
2018-08-08T23:02:23.844Z,231.80
2018-08-08T23:04:54.061Z,236.75
2018-08-08T23:07:24.184Z,240.28
2018-08-08T23:09:58.760Z,231.60
2018-08-08T23:12:29.016Z,230.57
2018-08-08T23:14:59.374Z,232.15
2018-08-08T23:17:29.496Z,225.55
2018-08-08T23:20:00.104Z,235.30
2018-08-08T23:22:40.934Z,242.03
2018-08-08T23:25:11.084Z,223.18
2018-08-08T23:27:41.396Z,232.18
2018-08-08T23:30:11.740Z,228.77
2018-08-08T23:32:41.890Z,236.57
2018-08-08T23:35:12.120Z,243.12
2018-08-08T23:37:43.010Z,237.72
2018-08-08T23:40:13.504Z,233.78
2018-08-08T23:42:43.689Z,227.20
2018-08-08T23:45:13.969Z,233.30
2018-08-08T23:47:44.233Z,235.30
2018-08-08T23:50:19.396Z,225.95
2018-08-08T23:52:53.198Z,219.97
2018-08-08T23:55:24.529Z,221.05
2018-08-08T23:57:55.993Z,235.20
